createdAt,value
2022-07-29T00:00:01.731Z,1012.09
2022-07-29T00:07:02.355Z,1012.074
2022-07-29T00:14:02.246Z,1012.074
2022-07-29T00:21:02.261Z,1011.934
2022-07-29T00:28:01.932Z,1011.758
2022-07-29T00:35:01.785Z,1011.758
2022-07-29T00:42:01.489Z,1011.516
2022-07-29T00:49:01.729Z,1011.516
2022-07-29T00:56:01.780Z,1011.185
2022-07-29T01:00:02.510Z,1011.185
2022-07-29T01:07:02.206Z,1011.097
2022-07-29T01:14:01.998Z,1011.097
2022-07-29T01:21:01.780Z,1011.161
2022-07-29T01:28:01.398Z,1011.161
2022-07-29T01:35:02.487Z,1010.911
2022-07-29T01:42:01.877Z,1010.911
2022-07-29T01:49:01.863Z,1010.991
2022-07-29T01:56:02.009Z,1010.991
2022-07-29T02:00:01.521Z,1011.046
2022-07-29T02:07:01.396Z,1011.046
2022-07-29T02:14:01.824Z,1011.039
2022-07-29T02:21:01.837Z,1011.039
2022-07-29T02:28:01.474Z,1011.198
2022-07-29T02:35:02.238Z,1011.198
2022-07-29T02:42:02.276Z,1011.411
2022-07-29T02:49:02.021Z,1011.235
2022-07-29T02:56:01.705Z,1011.235
2022-07-29T03:00:02.236Z,1011.235
2022-07-29T03:07:01.679Z,1011.42
2022-07-29T03:14:01.577Z,1011.42
2022-07-29T03:21:01.935Z,1011.607
2022-07-29T03:28:01.805Z,1012.09
2022-07-29T03:35:01.807Z,1012.09
2022-07-29T03:42:01.598Z,1012.221
2022-07-29T03:49:01.564Z,1012.221
2022-07-29T03:56:01.575Z,1011.996
2022-07-29T04:00:02.328Z,1011.996
2022-07-29T04:07:02.188Z,1011.679
2022-07-29T04:14:01.495Z,1011.679
2022-07-29T04:21:02.264Z,1011.673
2022-07-29T04:28:01.942Z,1011.673
2022-07-29T04:35:02.203Z,1011.888
2022-07-29T04:42:02.122Z,1011.888
2022-07-29T04:49:02.277Z,1011.903
2022-07-29T04:56:01.421Z,1011.903
2022-07-29T05:00:02.008Z,1011.622
2022-07-29T05:07:01.655Z,1011.622
2022-07-29T05:14:02.295Z,1011.791
2022-07-29T05:21:02.114Z,1011.791
2022-07-29T05:28:01.991Z,1011.673
2022-07-29T05:35:02.155Z,1011.673
2022-07-29T05:42:01.523Z,1011.92
2022-07-29T05:49:02.248Z,1011.917
2022-07-29T05:56:01.943Z,1011.917
2022-07-29T06:00:02.603Z,1011.917
2022-07-29T06:07:01.357Z,1012.035
2022-07-29T06:14:01.711Z,1012.035
2022-07-29T06:21:01.833Z,1012.255
2022-07-29T06:28:01.660Z,1012.404
2022-07-29T06:35:37.628Z,1012.404
2022-07-29T06:42:02.144Z,1012.426
2022-07-29T06:49:01.485Z,1012.426
2022-07-29T06:56:01.890Z,1012.519
2022-07-29T07:00:02.482Z,1012.519
2022-07-29T07:07:02.162Z,1012.677
2022-07-29T07:14:03.815Z,1012.677
2022-07-29T07:21:01.362Z,1012.783
2022-07-29T07:28:02.166Z,1012.783
2022-07-29T07:35:01.851Z,1012.827
2022-07-29T07:42:01.953Z,1012.827
2022-07-29T07:49:02.148Z,1012.634
2022-07-29T07:56:11.511Z,1012.634
2022-07-29T08:00:01.926Z,1012.464
2022-07-29T08:07:01.896Z,1012.464
2022-07-29T08:14:01.445Z,1012.681
2022-07-29T08:21:01.716Z,1012.681
2022-07-29T08:28:01.621Z,1012.608
2022-07-29T08:35:01.543Z,1012.608
2022-07-29T08:42:02.288Z,1012.786
2022-07-29T08:49:02.113Z,1012.626
2022-07-29T08:56:02.022Z,1012.626
2022-07-29T09:00:06.474Z,1012.626
2022-07-29T09:07:01.853Z,1012.452
2022-07-29T09:14:02.074Z,1012.452
2022-07-29T09:21:02.313Z,1012.58
2022-07-29T09:28:01.625Z,1012.337
2022-07-29T09:35:02.517Z,1012.337
2022-07-29T09:42:01.674Z,1012.603
2022-07-29T09:49:02.323Z,1012.603
2022-07-29T09:56:02.308Z,1012.729
2022-07-29T10:00:01.880Z,1012.729
2022-07-29T10:07:04.745Z,1012.715
2022-07-29T10:14:01.488Z,1012.715
2022-07-29T10:21:01.696Z,1012.713
2022-07-29T10:28:02.172Z,1012.713
2022-07-29T10:35:01.994Z,1012.74
2022-07-29T10:42:02.207Z,1012.74
2022-07-29T10:49:02.190Z,1012.873
2022-07-29T10:56:01.569Z,1012.873
2022-07-29T11:00:02.060Z,1012.887
2022-07-29T11:07:03.823Z,1012.887
2022-07-29T11:14:01.753Z,1012.884
2022-07-29T11:21:01.650Z,1012.884
2022-07-29T11:28:01.571Z,1012.771
2022-07-29T11:35:01.853Z,1012.771
2022-07-29T11:42:04.990Z,1012.812
2022-07-29T11:49:01.440Z,1012.54
2022-07-29T11:56:02.825Z,1012.54
2022-07-29T12:00:09.973Z,1012.54
2022-07-29T12:07:04.804Z,1012.581
2022-07-29T12:14:01.838Z,1012.581
2022-07-29T12:21:03.569Z,1012.697
2022-07-29T12:28:01.844Z,1012.688
2022-07-29T12:35:01.619Z,1012.688
2022-07-29T12:42:04.647Z,1012.753
2022-07-29T12:49:04.093Z,1012.753
2022-07-29T12:56:03.454Z,1012.607
2022-07-29T13:00:02.121Z,1012.607
2022-07-29T13:07:02.355Z,1012.637
2022-07-29T13:14:06.504Z,1012.637
2022-07-29T13:21:02.061Z,1012.557
2022-07-29T13:28:02.181Z,1012.557
2022-07-29T13:35:05.080Z,1012.601
2022-07-29T13:42:02.181Z,1012.601
2022-07-29T13:49:01.694Z,1012.4
2022-07-29T13:56:02.279Z,1012.4
2022-07-29T14:00:01.855Z,1012.514
2022-07-29T14:07:03.694Z,1012.514
2022-07-29T14:14:01.713Z,1012.438
2022-07-29T14:21:01.386Z,1012.438
2022-07-29T14:28:01.456Z,1012.465
2022-07-29T14:35:02.251Z,1012.465
2022-07-29T14:42:02.232Z,1012.526
2022-07-29T14:49:02.378Z,1012.502
2022-07-29T14:56:15.278Z,1012.502
2022-07-29T15:00:01.621Z,1012.502
2022-07-29T15:07:01.675Z,1012.555
2022-07-29T15:14:02.072Z,1012.555
2022-07-29T15:21:01.554Z,1012.323
2022-07-29T15:28:02.051Z,1012.544
2022-07-29T15:35:01.907Z,1012.544
2022-07-29T15:42:02.259Z,1012.556
2022-07-29T15:49:01.926Z,1012.556
2022-07-29T15:56:01.649Z,1012.61
2022-07-29T16:00:02.280Z,1012.61
2022-07-29T16:07:02.072Z,1012.443
2022-07-29T16:14:02.247Z,1012.443
2022-07-29T16:21:01.596Z,1012.406
2022-07-29T16:28:01.660Z,1012.406
2022-07-29T16:35:02.136Z,1012.294
2022-07-29T16:42:04.999Z,1012.294
2022-07-29T16:49:02.179Z,1012.391
2022-07-29T16:56:02.116Z,1012.391
2022-07-29T17:00:01.722Z,1012.402
2022-07-29T17:07:01.990Z,1012.402
2022-07-29T17:14:01.387Z,1012.383
2022-07-29T17:21:01.352Z,1012.383
2022-07-29T17:28:02.139Z,1012.529
2022-07-29T17:35:02.239Z,1012.529
2022-07-29T17:42:01.732Z,1012.407
2022-07-29T17:49:02.312Z,1012.674
2022-07-29T17:56:02.183Z,1012.674
2022-07-29T18:00:01.710Z,1012.674
2022-07-29T18:07:02.275Z,1012.711
2022-07-29T18:14:02.574Z,1012.711
2022-07-29T18:21:02.050Z,1012.848
2022-07-29T18:28:01.969Z,1012.801
2022-07-29T18:35:01.998Z,1012.801
2022-07-29T18:42:01.539Z,1012.995
2022-07-29T18:49:01.703Z,1012.995
2022-07-29T18:56:01.647Z,1012.904
2022-07-29T19:00:02.270Z,1012.904
2022-07-29T19:07:01.814Z,1012.957
2022-07-29T19:14:02.035Z,1012.957
2022-07-29T19:21:01.670Z,1012.966
2022-07-29T19:28:01.367Z,1012.966
2022-07-29T19:35:01.714Z,1012.947
2022-07-29T19:42:03.438Z,1012.947
2022-07-29T19:49:02.103Z,1012.994
2022-07-29T19:56:01.441Z,1012.994
2022-07-29T20:00:02.027Z,1013.39
2022-07-29T20:07:01.971Z,1013.39
2022-07-29T20:14:01.600Z,1013.477
2022-07-29T20:21:01.720Z,1013.477
2022-07-29T20:28:01.452Z,1013.491
2022-07-29T20:35:02.234Z,1013.491
2022-07-29T20:42:01.342Z,1013.661
2022-07-29T20:49:01.526Z,1013.661
2022-07-29T20:56:01.753Z,1013.697
2022-07-29T21:00:02.325Z,1013.697
2022-07-29T21:07:01.917Z,1013.682
2022-07-29T21:14:01.571Z,1013.682
2022-07-29T21:21:01.717Z,1013.864
2022-07-29T21:28:01.869Z,1013.877
2022-07-29T21:35:02.452Z,1013.877
2022-07-29T21:42:01.993Z,1014.014
2022-07-29T21:49:01.628Z,1014.014
2022-07-29T21:56:01.455Z,1014.011
2022-07-29T22:00:03.162Z,1014.011
2022-07-29T22:07:01.772Z,1014.065
2022-07-29T22:14:02.163Z,1014.065
2022-07-29T22:21:02.113Z,1014.033
2022-07-29T22:28:01.755Z,1014.033
2022-07-29T22:35:01.954Z,1014.045
2022-07-29T22:42:02.243Z,1014.045
2022-07-29T22:49:01.619Z,1014.082
2022-07-29T22:56:01.595Z,1014.082
2022-07-29T23:00:02.202Z,1013.808
2022-07-29T23:07:02.333Z,1013.808
2022-07-29T23:14:02.077Z,1013.836
2022-07-29T23:21:01.932Z,1013.836
2022-07-29T23:28:02.186Z,1013.564
2022-07-29T23:35:02.715Z,1013.564
2022-07-29T23:42:01.770Z,1013.659
2022-07-29T23:49:02.325Z,1013.659
2022-07-29T23:56:01.815Z,1013.704
